Time;durP1;ratioP1;P1;durP2;ratioP2;P2;SDS_P1;SDS_P2;PMS_P1;PMS_P2;Temp;Humidity;BMP_temperature;BMP_pressure;BME280_temperature;BME280_humidity;BME280_pressure;Samples;Min_cycle;Max_cycle;Signal;HPM_P1;HPM_P2
2021/04/20 00:01:23;;;;;;;64.03;26.00;;;;;;;6.93;100.00;98220.38;5033501;28;20203;-71
2021/04/20 00:03:50;;;;;;;62.07;27.27;;;;;;;6.99;100.00;98222.31;5032028;28;20203;-72
2021/04/20 00:06:20;;;;;;;61.17;27.40;;;;;;;6.91;100.00;98224.19;5026085;28;20237;-71
2021/04/20 00:08:46;;;;;;;67.40;26.33;;;;;;;6.83;100.00;98227.72;5029361;28;20217;-72
2021/04/20 00:11:13;;;;;;;70.00;28.13;;;;;;;6.85;100.00;98216.94;5025961;28;20213;-70
2021/04/20 00:13:40;;;;;;;65.80;25.97;;;;;;;6.89;100.00;98216.41;5031809;28;20640;-72
2021/04/20 00:16:08;;;;;;;73.70;28.17;;;;;;;6.95;100.00;98222.84;5030670;28;20218;-71
2021/04/20 00:18:34;;;;;;;63.70;26.80;;;;;;;6.91;100.00;98214.38;5031038;28;20210;-72
2021/04/20 00:21:01;;;;;;;59.57;26.33;;;;;;;6.94;100.00;98216.72;5025412;28;20220;-72
2021/04/20 00:23:28;;;;;;;65.70;27.47;;;;;;;6.87;100.00;98215.75;5027982;28;20581;-71
2021/04/20 00:25:55;;;;;;;69.23;27.80;;;;;;;6.82;100.00;98210.16;5032701;28;20238;-72
2021/04/20 00:28:25;;;;;;;71.57;27.67;;;;;;;6.82;100.00;98209.31;5030241;28;20207;-71
2021/04/20 00:30:52;;;;;;;67.90;26.93;;;;;;;6.89;100.00;98204.94;5028508;28;20207;-71
2021/04/20 00:33:21;;;;;;;73.37;27.67;;;;;;;6.94;100.00;98206.09;5025026;28;20256;-72
2021/04/20 00:35:48;;;;;;;64.97;27.13;;;;;;;6.87;100.00;98197.19;5030552;28;20642;-71
2021/04/20 00:38:15;;;;;;;63.07;25.60;;;;;;;6.71;100.00;98204.38;5028778;28;20213;-71
2021/04/20 00:40:42;;;;;;;65.93;26.87;;;;;;;6.73;100.00;98202.38;5032121;28;20203;-71
2021/04/20 00:43:09;;;;;;;69.93;28.00;;;;;;;6.67;100.00;98211.03;5027947;28;20208;-72
2021/04/20 00:45:37;;;;;;;61.80;26.03;;;;;;;6.66;100.00;98198.78;5030720;28;20239;-71
2021/04/20 00:48:05;;;;;;;61.67;26.57;;;;;;;6.80;100.00;98198.06;5025696;28;20231;-71
2021/04/20 00:50:35;;;;;;;64.77;26.13;;;;;;;6.76;100.00;98189.59;5029119;28;20597;-71
2021/04/20 00:53:02;;;;;;;58.90;26.57;;;;;;;6.68;100.00;98192.28;5029492;28;20678;-70
2021/04/20 00:55:30;;;;;;;66.57;27.20;;;;;;;6.51;100.00;98188.06;5028662;28;20211;-72
2021/04/20 00:57:56;;;;;;;68.77;28.03;;;;;;;6.56;100.00;98190.19;5026926;28;20214;-72
2021/04/20 01:00:26;;;;;;;66.30;26.03;;;;;;;6.52;100.00;98188.88;5030181;28;20671;-71
2021/04/20 01:02:54;;;;;;;60.83;26.53;;;;;;;6.61;100.00;98193.16;5029608;28;20214;-71
2021/04/20 01:05:22;;;;;;;66.97;26.17;;;;;;;6.60;100.00;98186.19;5023199;28;20208;-71
2021/04/20 01:07:50;;;;;;;68.57;27.10;;;;;;;6.43;100.00;98185.44;5030172;28;20214;-71
2021/04/20 01:10:18;;;;;;;65.90;25.83;;;;;;;6.52;100.00;98183.56;5031283;28;20211;-70
2021/04/20 01:12:45;;;;;;;71.93;27.87;;;;;;;6.55;100.00;98178.75;5026395;28;20236;-71
2021/04/20 01:15:14;;;;;;;64.97;26.20;;;;;;;6.56;100.00;98182.25;5024019;28;20207;-71
2021/04/20 01:17:41;;;;;;;60.17;26.63;;;;;;;6.47;100.00;98186.75;5024988;28;20214;-71
2021/04/20 01:20:10;;;;;;;58.70;25.90;;;;;;;6.44;100.00;98175.66;5024822;28;20206;-70
2021/04/20 01:22:40;;;;;;;67.53;27.97;;;;;;;6.47;100.00;98181.44;5027549;28;20591;-70
2021/04/20 01:25:09;;;;;;;65.37;26.27;;;;;;;6.55;100.00;98180.59;5023391;28;20229;-70
2021/04/20 01:27:37;;;;;;;63.23;25.80;;;;;;;6.39;100.00;98183.31;5031512;28;20230;-71
2021/04/20 01:30:05;;;;;;;69.67;27.40;;;;;;;6.37;100.00;98188.75;5024457;28;20202;-71
2021/04/20 01:32:33;;;;;;;59.63;26.07;;;;;;;6.47;100.00;98181.44;5025435;28;20293;-71
2021/04/20 01:34:59;;;;;;;66.73;27.63;;;;;;;6.44;100.00;98178.31;5023855;28;20308;-70
2021/04/20 01:37:26;;;;;;;70.60;27.73;;;;;;;6.26;100.00;98177.69;5021799;28;20233;-71
2021/04/20 01:39:53;;;;;;;63.07;26.43;;;;;;;6.35;100.00;98177.50;5022927;28;20683;-73
2021/04/20 01:42:21;;;;;;;60.13;27.07;;;;;;;6.26;100.00;98183.00;5028282;28;20259;-70
2021/04/20 01:44:48;;;;;;;62.37;27.80;;;;;;;6.32;100.00;98193.75;5021840;28;20587;-70
2021/04/20 01:47:14;;;;;;;73.23;28.57;;;;;;;6.38;100.00;98198.38;5022016;28;20230;-71
2021/04/20 01:49:41;;;;;;;65.87;26.33;;;;;;;6.35;100.00;98196.03;5030670;28;20297;-71
2021/04/20 01:52:08;;;;;;;66.53;27.40;;;;;;;6.36;100.00;98196.88;5030316;28;20268;-71
2021/04/20 01:54:35;;;;;;;68.50;27.50;;;;;;;6.26;100.00;98199.72;5029926;28;20198;-71
2021/04/20 01:57:02;;;;;;;69.17;26.77;;;;;;;6.31;100.00;98202.69;5029162;28;20219;-70
2021/04/20 01:59:30;;;;;;;72.77;27.60;;;;;;;6.30;100.00;98195.72;5030655;28;20203;-71
2021/04/20 02:01:58;;;;;;;71.10;29.23;;;;;;;6.36;100.00;98192.41;5029349;28;20594;-71
2021/04/20 02:04:25;;;;;;;62.37;26.90;;;;;;;6.30;100.00;98197.56;5030540;28;20203;-71
2021/04/20 02:06:52;;;;;;;73.40;28.23;;;;;;;6.47;100.00;98193.84;5027384;28;20233;-71
2021/04/20 02:09:20;;;;;;;74.07;27.93;;;;;;;6.47;100.00;98200.00;5030491;28;20340;-72
2021/04/20 02:11:47;;;;;;;74.53;29.23;;;;;;;6.44;100.00;98202.97;5026705;28;20208;-70
2021/04/20 02:14:13;;;;;;;59.83;26.70;;;;;;;6.44;100.00;98194.22;5028309;28;20213;-72
2021/04/20 02:16:42;;;;;;;66.00;26.37;;;;;;;6.38;100.00;98193.06;5028718;28;20340;-72
2021/04/20 02:19:13;;;;;;;69.30;26.97;;;;;;;6.42;100.00;98182.94;5027928;28;20212;-71
2021/04/20 02:21:40;;;;;;;63.90;26.57;;;;;;;6.31;100.00;98191.25;5026783;28;20210;-71
2021/04/20 02:24:08;;;;;;;69.27;27.23;;;;;;;6.34;100.00;98190.94;5030641;28;20220;-71
2021/04/20 02:26:38;;;;;;;68.30;26.57;;;;;;;6.44;100.00;98187.06;5038046;28;20225;-71
2021/04/20 02:29:07;;;;;;;59.87;25.87;;;;;;;6.34;100.00;98190.94;5044361;28;20207;-71
2021/04/20 02:31:35;;;;;;;61.70;26.23;;;;;;;6.30;100.00;98190.41;5039169;28;20207;-72
2021/04/20 02:34:05;;;;;;;66.00;27.17;;;;;;;6.29;100.00;98186.13;5032563;28;20565;-73
2021/04/20 02:36:35;;;;;;;65.30;27.53;;;;;;;6.36;100.00;98191.56;5024496;28;20309;-71
2021/04/20 02:39:02;;;;;;;71.43;27.10;;;;;;;6.41;100.00;98190.09;5028549;28;20202;-71
2021/04/20 02:41:30;;;;;;;67.77;28.13;;;;;;;6.51;100.00;98181.91;5025816;28;20242;-70
2021/04/20 02:43:57;;;;;;;66.77;26.53;;;;;;;6.56;100.00;98184.88;5023110;28;20225;-70
2021/04/20 02:46:24;;;;;;;73.07;28.00;;;;;;;6.59;100.00;98187.19;5022523;28;20226;-71
2021/04/20 02:48:51;;;;;;;67.60;27.83;;;;;;;6.55;100.00;98188.53;5022806;28;20211;-71
2021/04/20 02:51:20;;;;;;;68.47;27.03;;;;;;;6.45;100.00;98180.78;5028180;28;20655;-71
2021/04/20 02:53:48;;;;;;;82.73;28.70;;;;;;;6.41;100.00;98181.28;5025612;28;20216;-70
2021/04/20 02:56:16;;;;;;;65.03;25.63;;;;;;;6.37;100.00;98180.81;5027222;28;20219;-71
2021/04/20 02:58:45;;;;;;;64.30;27.43;;;;;;;6.25;100.00;98184.00;5023754;28;20209;-72
2021/04/20 03:01:17;;;;;;;60.20;25.17;;;;;;;6.28;100.00;98179.19;5027088;28;20205;-71
2021/04/20 03:03:45;;;;;;;63.27;27.50;;;;;;;6.17;100.00;98182.19;5030238;28;20217;-71
2021/04/20 03:06:13;;;;;;;67.93;27.60;;;;;;;6.12;100.00;98183.69;5021511;28;20226;-71
2021/04/20 03:08:41;;;;;;;67.40;27.20;;;;;;;6.17;100.00;98176.88;5024656;28;20218;-71
2021/04/20 03:11:14;;;;;;;68.50;26.73;;;;;;;6.25;100.00;98176.84;5026730;28;20202;-71
2021/04/20 03:13:42;;;;;;;62.57;25.33;;;;;;;6.11;100.00;98174.91;5022364;28;20210;-70
2021/04/20 03:16:10;;;;;;;68.97;26.43;;;;;;;5.97;100.00;98172.13;5028709;28;20218;-71
2021/04/20 03:18:36;;;;;;;66.30;26.70;;;;;;;6.06;100.00;98173.75;5027767;28;20214;-71
2021/04/20 03:21:04;;;;;;;57.13;24.67;;;;;;;6.09;100.00;98179.53;5029612;28;20293;-71
2021/04/20 03:23:33;;;;;;;61.93;25.70;;;;;;;6.22;100.00;98181.66;5022982;28;20207;-71
2021/04/20 03:26:01;;;;;;;55.50;25.07;;;;;;;6.25;100.00;98176.84;5021595;28;20237;-70
2021/04/20 03:28:28;;;;;;;59.80;26.20;;;;;;;6.26;100.00;98173.22;5025550;28;20211;-72
2021/04/20 03:30:58;;;;;;;57.07;25.70;;;;;;;6.26;100.00;98177.69;5028743;28;20198;-70
2021/04/20 03:33:29;;;;;;;56.20;23.83;;;;;;;6.19;100.00;98166.13;5024513;28;20207;-70
2021/04/20 03:35:59;;;;;;;52.77;24.67;;;;;;;6.01;100.00;98173.44;5024583;28;20264;-71
2021/04/20 03:38:45;;;;;;;58.10;25.07;;;;;;;6.21;100.00;98169.44;5027882;28;20207;-70
2021/04/20 03:41:16;;;;;;;53.00;25.13;;;;;;;6.25;100.00;98163.59;5019274;28;20678;-71
2021/04/20 03:43:46;;;;;;;55.23;26.43;;;;;;;6.24;100.00;98163.78;5031434;28;20211;-70
2021/04/20 03:46:15;;;;;;;56.47;24.77;;;;;;;6.09;100.00;98158.34;5033146;28;20230;-72
2021/04/20 03:48:45;;;;;;;50.80;23.87;;;;;;;6.17;100.00;98158.34;5031251;28;20235;-71
2021/04/20 03:51:14;;;;;;;52.77;25.17;;;;;;;6.37;100.00;98159.59;5022703;28;20199;-70
2021/04/20 03:53:43;;;;;;;48.73;24.13;;;;;;;6.36;100.00;98157.13;5031873;28;20222;-70
2021/04/20 03:56:12;;;;;;;53.37;24.10;;;;;;;6.27;100.00;98152.84;5029405;28;20219;-71
2021/04/20 03:58:40;;;;;;;55.67;24.40;;;;;;;6.35;100.00;98156.28;5029479;28;20293;-71
2021/04/20 04:01:09;;;;;;;56.33;25.23;;;;;;;6.35;100.00;98153.63;5032338;28;20699;-71
2021/04/20 04:03:37;;;;;;;47.60;23.10;;;;;;;6.33;100.00;98154.81;5033359;28;20248;-71
2021/04/20 04:06:05;;;;;;;56.80;24.33;;;;;;;6.35;100.00;98156.28;5031483;28;20238;-71
2021/04/20 04:08:35;;;;;;;55.37;24.70;;;;;;;6.41;100.00;98158.28;5032983;28;20211;-71
2021/04/20 04:11:04;;;;;;;58.60;25.97;;;;;;;6.31;100.00;98156.81;5033280;28;20676;-71
2021/04/20 04:13:33;;;;;;;57.37;25.23;;;;;;;6.24;100.00;98161.94;5030934;28;20543;-70
2021/04/20 04:16:01;;;;;;;55.53;25.63;;;;;;;6.21;100.00;98162.31;5030520;28;20777;-71
2021/04/20 04:18:31;;;;;;;56.13;23.17;;;;;;;6.31;100.00;98154.16;5023343;28;20293;-71
2021/04/20 04:21:00;;;;;;;55.20;24.77;;;;;;;6.38;100.00;98160.41;5029931;28;21407;-70
2021/04/20 04:23:31;;;;;;;65.07;26.97;;;;;;;6.35;100.00;98147.53;5031270;28;20212;-71
2021/04/20 04:26:02;;;;;;;55.37;25.07;;;;;;;6.41;100.00;98152.97;5027851;28;20234;-72
2021/04/20 04:28:31;;;;;;;54.33;24.23;;;;;;;6.32;100.00;98153.16;5032152;28;20257;-72
2021/04/20 04:30:59;;;;;;;63.33;26.43;;;;;;;6.23;100.00;98154.16;5029618;28;20256;-72
2021/04/20 04:33:27;;;;;;;65.23;25.37;;;;;;;6.32;100.00;98147.84;5029665;28;21688;-73
2021/04/20 04:35:53;;;;;;;66.57;26.73;;;;;;;6.21;100.00;98158.81;5029492;28;20229;-71
2021/04/20 04:38:21;;;;;;;69.60;26.87;;;;;;;6.22;100.00;98166.59;5028334;28;20306;-71
2021/04/20 04:40:48;;;;;;;65.67;26.63;;;;;;;6.19;100.00;98166.13;5028940;28;20234;-72
2021/04/20 04:43:16;;;;;;;62.57;25.73;;;;;;;6.23;100.00;98167.41;5027674;28;20214;-72
2021/04/20 04:45:43;;;;;;;54.83;26.70;;;;;;;6.10;100.00;98169.78;5028790;28;20233;-71
2021/04/20 04:48:11;;;;;;;61.03;26.27;;;;;;;5.99;100.00;98160.34;5022951;28;20200;-72
2021/04/20 04:50:40;;;;;;;72.77;27.17;;;;;;;6.11;100.00;98174.09;5028104;28;20202;-72
2021/04/20 04:53:08;;;;;;;62.30;26.70;;;;;;;6.22;100.00;98169.25;5027082;28;20211;-71
2021/04/20 04:55:35;;;;;;;59.83;26.40;;;;;;;6.29;100.00;98167.56;5031868;28;20748;-72
2021/04/20 04:58:02;;;;;;;59.37;25.10;;;;;;;6.34;100.00;98172.38;5026563;28;20208;-72
2021/04/20 05:00:29;;;;;;;59.80;25.63;;;;;;;6.26;100.00;98162.63;5031592;28;20218;-72
2021/04/20 05:02:59;;;;;;;63.80;25.77;;;;;;;6.16;100.00;98169.94;5030168;28;20675;-71
2021/04/20 05:05:26;;;;;;;64.80;27.10;;;;;;;6.20;100.00;98165.13;5024593;28;20233;-72
2021/04/20 05:07:58;;;;;;;72.50;28.23;;;;;;;6.38;100.00;98174.50;5030288;28;20203;-71
2021/04/20 05:10:25;;;;;;;67.80;28.50;;;;;;;6.47;100.00;98164.69;5031056;28;20567;-72
2021/04/20 05:12:52;;;;;;;60.70;27.13;;;;;;;6.59;100.00;98163.31;5029810;28;20214;-72
2021/04/20 05:15:20;;;;;;;67.87;28.47;;;;;;;6.59;100.00;98173.91;5026985;28;20677;-71
2021/04/20 05:17:47;;;;;;;72.60;27.00;;;;;;;6.60;100.00;98165.81;5029810;28;20630;-72
2021/04/20 05:20:18;;;;;;;65.43;27.13;;;;;;;6.64;100.00;98166.28;5027958;28;20204;-70
2021/04/20 05:22:46;;;;;;;64.10;27.50;;;;;;;6.68;100.00;98164.94;5040640;28;20203;-71
2021/04/20 05:25:15;;;;;;;71.90;28.47;;;;;;;6.76;100.00;98168.38;5040991;28;20217;-71
2021/04/20 05:27:43;;;;;;;69.37;27.60;;;;;;;6.82;100.00;98166.88;5037994;28;20708;-74
2021/04/20 05:30:12;;;;;;;69.40;27.90;;;;;;;6.92;100.00;98170.97;5028313;28;20207;-70
2021/04/20 05:32:40;;;;;;;89.87;29.13;;;;;;;6.93;100.00;98172.63;5025986;28;20218;-70
2021/04/20 05:35:09;;;;;;;79.57;28.93;;;;;;;6.81;100.00;98171.34;5024860;28;20216;-73
2021/04/20 05:37:38;;;;;;;79.07;29.13;;;;;;;6.85;100.00;98170.00;5031092;28;20246;-72
2021/04/20 05:40:07;;;;;;;70.27;28.37;;;;;;;6.91;100.00;98169.28;5029825;28;20208;-75
2021/04/20 05:42:34;;;;;;;76.87;29.13;;;;;;;7.07;100.00;98166.56;5023280;28;20238;-73
2021/04/20 05:45:10;;;;;;;63.57;28.33;;;;;;;7.19;100.00;98177.59;5028957;28;20291;-79
2021/04/20 05:47:38;;;;;;;75.80;31.02;;;;;;;7.57;100.00;98176.66;5024837;28;20537;-76
2021/04/20 05:50:07;;;;;;;70.70;29.07;;;;;;;7.79;100.00;98174.00;5030536;28;20203;-72
2021/04/20 05:52:34;;;;;;;68.17;29.17;;;;;;;7.80;100.00;98167.66;5031188;28;20205;-72
2021/04/20 05:55:02;;;;;;;56.10;25.07;;;;;;;8.02;100.00;98168.63;5024353;28;20825;-70
2021/04/20 05:57:29;;;;;;;57.00;26.87;;;;;;;8.12;100.00;98167.34;5023519;28;20239;-71
2021/04/20 05:59:57;;;;;;;59.77;27.40;;;;;;;8.05;100.00;98174.41;5025095;28;20580;-71
2021/04/20 06:02:25;;;;;;;61.47;26.70;;;;;;;7.94;100.00;98168.69;5030508;28;20689;-71
2021/04/20 06:04:54;;;;;;;57.43;26.80;;;;;;;8.34;100.00;98171.81;5027851;28;20204;-71
2021/04/20 06:07:21;;;;;;;51.37;25.57;;;;;;;8.52;100.00;98166.16;5022948;28;20227;-72
2021/04/20 06:09:49;;;;;;;49.47;26.13;;;;;;;8.69;100.00;98168.44;5027462;28;20229;-71
2021/04/20 06:12:16;;;;;;;52.80;26.03;;;;;;;8.77;100.00;98168.31;5027749;28;20208;-70
2021/04/20 06:14:43;;;;;;;57.60;26.50;;;;;;;8.40;100.00;98175.56;5027876;28;20555;-72
2021/04/20 06:17:12;;;;;;;53.97;25.63;;;;;;;8.15;100.00;98171.47;5023397;28;20221;-71
2021/04/20 06:19:40;;;;;;;47.87;24.03;;;;;;;8.28;100.00;98180.50;5028760;28;20208;-71
2021/04/20 06:22:10;;;;;;;47.60;25.40;;;;;;;8.79;100.00;98170.78;5031357;28;20716;-71
2021/04/20 06:24:37;;;;;;;47.30;25.47;;;;;;;9.05;100.00;98174.59;5024336;28;20261;-71
2021/04/20 06:27:04;;;;;;;50.97;26.40;;;;;;;8.45;100.00;98182.00;5026374;28;20233;-71
2021/04/20 06:29:32;;;;;;;52.73;27.13;;;;;;;8.73;100.00;98177.66;5026460;28;20697;-70
2021/04/20 06:32:00;;;;;;;54.83;25.27;;;;;;;9.15;100.00;98179.63;5030001;28;20254;-70
2021/04/20 06:34:27;;;;;;;50.83;25.27;;;;;;;9.51;100.00;98173.25;5025809;28;20237;-71
2021/04/20 06:36:55;;;;;;;56.33;26.27;;;;;;;9.75;100.00;98178.16;5025104;28;20312;-70
2021/04/20 06:39:22;;;;;;;48.43;25.70;;;;;;;8.64;100.00;98176.13;5024048;28;20213;-71
2021/04/20 06:41:51;;;;;;;56.53;26.07;;;;;;;8.69;100.00;98181.72;5023651;28;20259;-71
2021/04/20 06:44:22;;;;;;;47.73;25.50;;;;;;;9.04;100.00;98174.78;5018161;28;20199;-70
2021/04/20 06:46:54;;;;;;;57.80;26.90;;;;;;;9.26;100.00;98174.63;5020157;28;20746;-72
2021/04/20 06:49:24;;;;;;;50.30;25.23;;;;;;;9.76;100.00;98177.19;5025408;28;20206;-70
2021/04/20 06:51:53;;;;;;;57.43;26.70;;;;;;;10.23;100.00;98177.38;5029467;28;20213;-71
2021/04/20 06:54:23;;;;;;;46.63;25.83;;;;;;;9.97;100.00;98179.81;5027577;28;20205;-71
2021/04/20 06:56:54;;;;;;;50.30;25.63;;;;;;;10.30;100.00;98182.78;5028320;28;20260;-73
2021/04/20 06:59:28;;;;;;;49.17;25.43;;;;;;;10.40;100.00;98185.91;5029473;28;20205;-72
2021/04/20 07:02:01;;;;;;;46.67;25.33;;;;;;;10.54;100.00;98187.63;5027543;28;20212;-72
2021/04/20 07:04:37;;;;;;;45.27;24.37;;;;;;;10.43;100.00;98183.69;5023576;28;20213;-72
2021/04/20 07:07:13;;;;;;;40.63;23.00;;;;;;;10.81;100.00;98182.25;5025852;28;20238;-72
2021/04/20 07:09:42;;;;;;;45.07;23.63;;;;;;;11.07;100.00;98178.88;5029081;28;20347;-72
2021/04/20 07:12:10;;;;;;;42.80;23.10;;;;;;;10.94;100.00;98174.31;5026153;28;20275;-72
2021/04/20 07:14:40;;;;;;;37.07;21.60;;;;;;;10.76;100.00;98176.66;5028112;28;20213;-72
2021/04/20 07:17:25;;;;;;;37.10;21.37;;;;;;;10.28;100.00;98171.44;5027934;28;20225;-72
2021/04/20 07:20:18;;;;;;;37.00;19.90;;;;;;;10.02;100.00;98171.22;5027746;28;20302;-72
2021/04/20 07:23:10;;;;;;;29.93;18.77;;;;;;;10.43;100.00;98176.69;5024253;28;20202;-72
2021/04/20 07:26:11;;;;;;;35.53;20.07;;;;;;;10.37;100.00;98172.97;5020372;28;20238;-73
2021/04/20 07:28:50;;;;;;;27.73;18.07;;;;;;;10.97;100.00;98163.19;4964977;28;20691;-73
2021/04/20 07:31:25;;;;;;;35.87;18.97;;;;;;;11.05;100.00;98172.88;5026567;28;20206;-72
2021/04/20 07:34:16;;;;;;;33.53;19.07;;;;;;;11.10;100.00;98168.59;5021831;28;20703;-73
2021/04/20 07:36:57;;;;;;;29.73;18.40;;;;;;;11.18;100.00;98170.28;5022565;28;20318;-71
2021/04/20 07:39:24;;;;;;;31.73;16.97;;;;;;;11.01;100.00;98172.47;5020558;28;20617;-71
2021/04/20 07:41:53;;;;;;;30.90;17.00;;;;;;;11.72;100.00;98170.22;5030195;28;20378;-71
2021/04/20 07:44:24;;;;;;;29.13;17.47;;;;;;;11.40;100.00;98179.78;5031479;28;20210;-71
2021/04/20 07:46:54;;;;;;;28.50;17.07;;;;;;;11.67;100.00;98170.00;5027732;28;20234;-72
2021/04/20 07:49:36;;;;;;;31.07;17.87;;;;;;;11.83;100.00;98173.13;5027117;28;20264;-71
2021/04/20 07:52:05;;;;;;;27.37;16.73;;;;;;;11.68;100.00;98179.66;5031012;28;21257;-71
2021/04/20 07:54:42;;;;;;;32.27;18.60;;;;;;;11.56;100.00;98168.75;5024962;28;20229;-71
2021/04/20 07:57:17;;;;;;;31.93;18.63;;;;;;;11.12;100.00;98171.88;5025882;28;20222;-71
2021/04/20 07:59:50;;;;;;;25.77;16.10;;;;;;;12.03;100.00;98171.28;5025855;28;20817;-70
2021/04/20 08:02:31;;;;;;;30.30;18.93;;;;;;;11.40;100.00;98167.25;5027231;28;20273;-69
2021/04/20 08:05:07;;;;;;;28.80;17.80;;;;;;;11.97;100.00;98165.91;5030971;28;20578;-73
2021/04/20 08:07:41;;;;;;;28.53;17.07;;;;;;;11.79;100.00;98166.53;5024219;28;20353;-70
2021/04/20 08:10:11;;;;;;;28.37;16.80;;;;;;;11.35;100.00;98160.88;5032323;28;20209;-70
2021/04/20 08:12:46;;;;;;;29.83;16.90;;;;;;;12.05;100.00;98165.72;5032963;28;20213;-70
2021/04/20 08:15:14;;;;;;;31.47;17.57;;;;;;;12.79;100.00;98157.97;5045489;28;20209;-73
2021/04/20 08:17:47;;;;;;;31.13;16.93;;;;;;;12.73;100.00;98154.50;5041942;28;20204;-73
2021/04/20 08:20:17;;;;;;;25.43;15.50;;;;;;;12.13;100.00;98150.28;5032351;28;20206;-72
2021/04/20 08:22:45;;;;;;;28.67;16.20;;;;;;;13.47;100.00;98158.31;5029796;28;20290;-72
2021/04/20 08:25:17;;;;;;;27.30;14.90;;;;;;;13.43;100.00;98144.50;5031003;28;20220;-70
2021/04/20 08:27:50;;;;;;;25.33;16.17;;;;;;;13.05;100.00;98142.84;5027240;28;20224;-71
2021/04/20 08:30:20;;;;;;;27.97;16.43;;;;;;;13.42;100.00;98155.47;5027351;28;20633;-72
2021/04/20 08:32:51;;;;;;;17.47;11.03;;;;;;;13.25;100.00;98154.28;5031360;28;20296;-72
2021/04/20 08:35:21;;;;;;;24.13;13.67;;;;;;;12.76;100.00;98154.09;5027990;28;20212;-72
2021/04/20 08:38:10;;;;;;;22.47;14.10;;;;;;;13.41;100.00;98151.13;5030479;28;20211;-74
2021/04/20 08:40:44;;;;;;;22.37;13.50;;;;;;;13.85;100.00;98142.97;5026791;28;20297;-71
2021/04/20 08:43:23;;;;;;;21.03;13.27;;;;;;;13.10;100.00;98146.56;5025737;28;20700;-71
2021/04/20 08:45:55;;;;;;;24.03;15.07;;;;;;;13.63;100.00;98147.06;5023988;28;20221;-73
2021/04/20 08:48:28;;;;;;;19.97;12.83;;;;;;;13.90;100.00;98143.16;5028246;28;20695;-71
2021/04/20 08:51:00;;;;;;;16.57;10.87;;;;;;;14.24;88.05;98151.56;5028488;28;20215;-72
2021/04/20 08:53:46;;;;;;;18.17;11.40;;;;;;;14.13;88.02;98144.19;5025604;28;20222;-71
2021/04/20 08:56:20;;;;;;;19.13;11.90;;;;;;;14.10;87.36;98146.50;5022618;28;20226;-71
2021/04/20 08:59:11;;;;;;;17.30;11.23;;;;;;;14.80;86.47;98140.66;5028112;28;20258;-71
2021/04/20 09:01:50;;;;;;;17.10;11.00;;;;;;;15.21;81.83;98141.59;5030015;28;20252;-72
2021/04/20 09:05:00;;;;;;;13.33;8.63;;;;;;;14.55;78.58;98147.97;5028203;28;20256;-71
2021/04/20 09:07:39;;;;;;;16.07;10.40;;;;;;;13.73;86.85;98147.41;5002681;28;20238;-72
2021/04/20 09:10:10;;;;;;;16.57;10.83;;;;;;;14.84;86.62;98149.94;5027041;28;20686;-71
2021/04/20 09:12:37;;;;;;;21.37;12.20;;;;;;;15.32;82.30;98135.47;5026962;28;20218;-71
2021/04/20 09:15:04;;;;;;;23.10;12.27;;;;;;;13.93;95.84;98137.38;5022773;28;20204;-73
2021/04/20 09:17:37;;;;;;;19.67;12.27;;;;;;;14.07;96.42;98131.66;5026388;28;20224;-71
2021/04/20 09:20:09;;;;;;;20.97;13.90;;;;;;;14.43;91.87;98130.94;5027165;28;20207;-71
2021/04/20 09:22:49;;;;;;;23.33;12.70;;;;;;;14.55;88.41;98130.00;5024579;28;20210;-72
2021/04/20 09:25:20;;;;;;;19.83;13.00;;;;;;;15.12;90.34;98128.69;5020153;28;20229;-71
2021/04/20 09:27:51;;;;;;;18.27;12.57;;;;;;;15.78;83.58;98126.72;5029523;28;20234;-73
2021/04/20 09:30:21;;;;;;;19.53;12.90;;;;;;;15.47;85.44;98121.63;5025358;28;20555;-77
2021/04/20 09:32:54;;;;;;;23.20;13.23;;;;;;;15.09;86.36;98116.53;5023301;28;20228;-73
2021/04/20 09:35:21;;;;;;;22.43;14.90;;;;;;;14.34;92.11;98118.84;5025736;28;20239;-75
2021/04/20 09:37:50;;;;;;;23.03;14.40;;;;;;;14.76;91.38;98112.59;5028170;28;20208;-71
2021/04/20 09:40:19;;;;;;;21.40;12.67;;;;;;;15.50;81.67;98124.66;5019194;28;20201;-75
2021/04/20 09:42:49;;;;;;;23.40;13.20;;;;;;;15.70;80.51;98119.81;5026571;28;20212;-73
2021/04/20 09:45:21;;;;;;;18.43;11.40;;;;;;;15.17;83.05;98123.44;5027636;28;20212;-73
2021/04/20 09:48:02;;;;;;;17.23;12.00;;;;;;;14.88;84.13;98125.06;5023538;28;20356;-72
2021/04/20 09:50:34;;;;;;;18.13;11.50;;;;;;;14.95;83.89;98116.91;5021736;28;20317;-76
2021/04/20 09:53:18;;;;;;;19.43;11.83;;;;;;;14.88;82.88;98118.84;5033187;28;20204;-74
2021/04/20 09:55:50;;;;;;;18.27;11.13;;;;;;;14.86;84.20;98120.94;5027586;28;20299;-76
2021/04/20 09:58:21;;;;;;;18.73;12.03;;;;;;;14.53;86.54;98123.22;5012844;28;20209;-76
2021/04/20 10:00:48;;;;;;;19.30;11.27;;;;;;;15.61;79.66;98126.56;5023779;28;20212;-72
2021/04/20 10:03:28;;;;;;;18.73;11.83;;;;;;;15.96;71.26;98134.75;5031722;28;20208;-72
2021/04/20 10:06:16;;;;;;;20.07;12.13;;;;;;;16.19;71.17;98132.88;5022453;28;20228;-72
2021/04/20 10:08:58;;;;;;;22.27;12.17;;;;;;;16.25;72.85;98128.44;5026668;28;20217;-72
2021/04/20 10:11:32;;;;;;;19.50;11.33;;;;;;;15.68;73.30;98126.47;5026006;28;20210;-71
2021/04/20 10:14:11;;;;;;;18.00;11.30;;;;;;;15.63;73.17;98126.34;5024496;28;20241;-72
2021/04/20 10:16:41;;;;;;;16.73;10.67;;;;;;;15.73;69.01;98135.50;5018320;28;20257;-74
2021/04/20 10:19:19;;;;;;;19.03;11.10;;;;;;;15.32;68.94;98131.94;5025246;28;20679;-76
2021/04/20 10:21:56;;;;;;;18.03;10.50;;;;;;;15.36;71.01;98125.09;5021076;28;20196;-73
2021/04/20 10:24:25;;;;;;;14.77;10.43;;;;;;;15.25;73.37;98125.84;5025069;28;20209;-74
2021/04/20 10:26:57;;;;;;;16.47;10.13;;;;;;;15.70;73.44;98119.81;5022200;28;20279;-79
2021/04/20 10:29:28;;;;;;;18.00;10.60;;;;;;;15.51;75.34;98106.66;5027082;28;20271;-78
2021/04/20 10:31:58;;;;;;;17.20;9.67;;;;;;;16.29;70.80;98108.06;5024040;28;20213;-73
2021/04/20 10:34:25;;;;;;;18.23;11.03;;;;;;;15.77;69.20;98120.56;5029481;28;20202;-79
2021/04/20 10:36:55;;;;;;;15.37;9.80;;;;;;;15.52;69.96;98117.19;5029310;28;20609;-72
2021/04/20 10:39:25;;;;;;;18.30;10.53;;;;;;;15.65;70.90;98114.31;5029290;28;20206;-71
2021/04/20 10:41:53;;;;;;;15.73;9.60;;;;;;;15.96;71.77;98105.13;5028164;28;20610;-72
2021/04/20 10:44:23;;;;;;;17.77;10.07;;;;;;;16.47;66.63;98113.38;5028316;28;20289;-72
2021/04/20 10:46:54;;;;;;;13.93;9.60;;;;;;;15.91;65.95;98105.81;5022774;28;20322;-73
2021/04/20 10:49:22;;;;;;;15.97;10.40;;;;;;;16.68;64.13;98112.75;5029325;28;20203;-72
2021/04/20 10:51:54;;;;;;;15.53;8.93;;;;;;;16.86;63.96;98102.63;5014943;28;20214;-72
2021/04/20 10:54:22;;;;;;;14.87;9.23;;;;;;;17.11;57.21;98110.41;5028354;28;20203;-73
2021/04/20 10:56:53;;;;;;;14.60;10.03;;;;;;;16.02;69.68;98088.88;5027887;28;20223;-74
2021/04/20 10:59:29;;;;;;;14.53;8.63;;;;;;;17.10;55.55;98111.47;5031722;28;20251;-81
2021/04/20 11:01:58;;;;;;;12.17;8.70;;;;;;;17.05;54.67;98117.59;5022045;28;20253;-76
2021/04/20 11:04:28;;;;;;;12.47;8.17;;;;;;;16.61;60.39;98101.28;5020649;28;20204;-71
2021/04/20 11:07:18;;;;;;;15.53;8.97;;;;;;;17.35;60.35;98093.09;5040752;28;20254;-71
2021/04/20 11:09:46;;;;;;;11.83;7.93;;;;;;;17.48;51.46;98109.03;5051593;28;20274;-72
2021/04/20 11:12:16;;;;;;;11.73;7.77;;;;;;;16.33;55.65;98098.47;5047260;28;20208;-72
2021/04/20 11:14:45;;;;;;;16.53;8.00;;;;;;;16.25;57.56;98091.56;5042508;28;20215;-71
2021/04/20 11:17:25;;;;;;;11.90;7.50;;;;;;;16.94;52.74;98091.50;5030211;28;20219;-71
2021/04/20 11:19:56;;;;;;;12.63;7.90;;;;;;;16.63;52.48;98091.09;5030251;28;20252;-72
2021/04/20 11:22:24;;;;;;;11.57;7.27;;;;;;;17.43;50.53;98095.44;5025986;28;20204;-70
2021/04/20 11:24:56;;;;;;;11.07;7.33;;;;;;;17.71;51.96;98090.81;5024246;28;20218;-71
2021/04/20 11:27:30;;;;;;;11.53;7.87;;;;;;;17.32;52.10;98083.59;5027771;28;20236;-71
2021/04/20 11:30:06;;;;;;;13.80;8.53;;;;;;;17.71;54.39;98081.88;5028787;28;20204;-71
2021/04/20 11:32:36;;;;;;;10.97;7.03;;;;;;;17.06;58.63;98069.84;5023564;28;20214;-72